Marie Kirk — 2EAU7 — position and weather

sailwx.info

Track history (hours):
 
Tides and Currents Weather Stations Pressure Air Temp Water Temp Dewpoint Dewpoint Depression Visibility Wind Speed Wind Dir Waves Ship Positions

Marie Kirk

Last reported at 2017-Nov-19 01:01 UTC. Time now 2017-Nov-22 20:35 UTC.
Position N 36°05' W 005°21'.

Length 183 m; draft 11 m.

Type: Ship. MMSI: 235083559.

Date/timePositionNaut miles runAvg speedWind from/ knotsBaromVisibWave heightAir tempDewpointWater temp
2017-Nov-19 01:01N 36°05' W 005°21'0 8.2
2017-Nov-19 01:00N 36°05' W 005°21'4 8.3
2017-Nov-19 00:30N 36°08' W 005°17'0 0.4
2017-Nov-18 23:47N 36°08' W 005°17'0 0.7
2017-Nov-18 23:29N 36°08' W 005°17'0 0.5
2017-Nov-18 23:01N 36°07' W 005°17'1 1.6
2017-Nov-18 22:31N 36°08' W 005°17'1 2.1
2017-Nov-18 22:00N 36°07' W 005°17'2 4.4
2017-Nov-18 21:30N 36°05' W 005°18'4 8.1
2017-Nov-18 21:01N 36°02' W 005°21'611.3
2017-Nov-18 20:31N 35°58' W 005°26'5 9.0
2017-Nov-18 20:01N 35°57' W 005°31'18211.5
2017-Nov-18 04:11N 36°28' W 009°14'1211.9
2017-Nov-18 03:13N 36°34' W 009°26'312.6
2017-Nov-18 02:58N 36°36' W 009°28'613.2
2017-Nov-18 02:31N 36°41' W 009°34'712.9
2017-Nov-18 01:57N 36°46' W 009°39'612.8
2017-Nov-18 01:31N 36°52' W 009°41'712.6
2017-Nov-18 00:57N 36°59' W 009°43'511.7
2017-Nov-18 00:31N 37°03' W 009°39'1012.5
2017-Nov-17 23:40N 37°12' W 009°32'512.9
2017-Nov-17 23:19N 37°15' W 009°28'413.0
2017-Nov-17 22:59N 37°18' W 009°25'613.4
2017-Nov-17 22:30N 37°23' W 009°19'612.8
2017-Nov-17 22:01N 37°28' W 009°14'612.4
2017-Nov-17 21:31N 37°33' W 009°10'612.8
2017-Nov-17 21:00N 37°38' W 009°04'613.1
2017-Nov-17 20:31N 37°43' W 008°59'712.9
2017-Nov-17 20:00N 37°48' W 008°54'713.1
2017-Nov-17 19:31N 37°55' W 008°53'2 4.4
2017-Nov-17 19:00N 37°57' W 008°53'0 0.0
2017-Nov-17 18:27N 37°57' W 008°53'0 0.0
2017-Nov-17 18:00N 37°57' W 008°53'0 0.0
2017-Nov-17 17:30N 37°57' W 008°53'0 0.0
2017-Nov-17 17:00N 37°57' W 008°53'0 0.0
2017-Nov-17 16:30N 37°57' W 008°53'0 0.0
2017-Nov-17 16:00N 37°57' W 008°53'0 0.0
2017-Nov-17 15:30N 37°57' W 008°53'0 0.0
2017-Nov-17 15:00N 37°57' W 008°53'0 0.0
2017-Nov-17 14:30N 37°57' W 008°53'0 0.0
2017-Nov-17 14:00N 37°57' W 008°53'0 0.0
2017-Nov-17 13:30N 37°57' W 008°53'0 0.0
2017-Nov-17 13:00N 37°57' W 008°53'0 0.0
2017-Nov-17 12:30N 37°57' W 008°53'0 0.0
2017-Nov-17 12:00N 37°57' W 008°53'0 0.0
2017-Nov-17 11:30N 37°57' W 008°53'0 0.0
2017-Nov-17 11:00N 37°57' W 008°53'0 0.0
2017-Nov-17 10:27N 37°57' W 008°53'0 0.0
2017-Nov-17 10:00N 37°57' W 008°53'0 0.0
2017-Nov-17 09:30N 37°57' W 008°53'0 0.0
2017-Nov-17 09:00N 37°57' W 008°53'0 0.0
2017-Nov-17 08:30N 37°57' W 008°53'0 0.0
2017-Nov-17 08:00N 37°57' W 008°53'0 0.0
2017-Nov-17 07:30N 37°57' W 008°53'0 0.0
2017-Nov-17 07:00N 37°57' W 008°53'0 0.0
2017-Nov-17 06:30N 37°57' W 008°53'0 0.0
2017-Nov-17 06:00N 37°57' W 008°53'0 0.0
2017-Nov-17 05:30N 37°57' W 008°53'0 0.0
2017-Nov-17 05:00N 37°57' W 008°53'0 0.0
2017-Nov-17 04:30N 37°57' W 008°53'0 0.0
2017-Nov-17 04:00N 37°57' W 008°53'0 0.0
2017-Nov-17 03:30N 37°57' W 008°53'0 0.0
2017-Nov-17 03:00N 37°57' W 008°53'0 0.0
2017-Nov-17 02:30N 37°57' W 008°53'0 0.0
2017-Nov-17 02:00N 37°57' W 008°53'0 0.0
2017-Nov-17 01:30N 37°57' W 008°53'0 0.0
2017-Nov-17 01:00N 37°57' W 008°53'0 0.0
2017-Nov-17 00:30N 37°57' W 008°53'0 0.0
2017-Nov-17 00:00N 37°57' W 008°53'0 0.0
2017-Nov-16 23:30N 37°57' W 008°53'0 0.0
2017-Nov-16 23:00N 37°57' W 008°53'0 0.0
2017-Nov-16 22:30N 37°57' W 008°53'0 0.0
2017-Nov-16 22:00N 37°57' W 008°53'0 0.0
2017-Nov-16 21:30N 37°57' W 008°53'0 0.0
2017-Nov-16 21:00N 37°57' W 008°53'0 0.0
2017-Nov-16 20:30N 37°57' W 008°53'0 0.0
2017-Nov-16 20:00N 37°57' W 008°53'0 0.0
2017-Nov-16 19:30N 37°57' W 008°53'0 0.0
2017-Nov-16 19:00N 37°57' W 008°53'0 0.0
2017-Nov-16 18:30N 37°57' W 008°53'0 0.0
2017-Nov-16 18:00N 37°57' W 008°53'0 0.0
2017-Nov-16 17:30N 37°57' W 008°53'0 0.0
2017-Nov-16 17:00N 37°57' W 008°53'0 0.0
2017-Nov-16 16:30N 37°57' W 008°53'0 0.0
2017-Nov-16 16:00N 37°57' W 008°53'0 0.0
2017-Nov-16 15:30N 37°57' W 008°53'0 0.0
2017-Nov-16 15:00N 37°57' W 008°53'0 0.0
2017-Nov-16 14:30N 37°57' W 008°53'0 0.0
2017-Nov-16 14:00N 37°57' W 008°53'0 0.0
2017-Nov-16 13:30N 37°57' W 008°53'0 0.0
2017-Nov-16 13:00N 37°57' W 008°53'0 0.0
2017-Nov-16 12:30N 37°57' W 008°53'0 0.0
2017-Nov-16 12:00N 37°57' W 008°53'0 0.0
2017-Nov-16 11:30N 37°57' W 008°53'0 0.0
2017-Nov-16 11:00N 37°57' W 008°53'0 0.0
2017-Nov-16 10:30N 37°57' W 008°53'0 0.0
2017-Nov-16 10:00N 37°57' W 008°53'0 0.0
2017-Nov-16 09:30N 37°57' W 008°53'0 0.0
2017-Nov-16 09:00N 37°57' W 008°53'0 0.0
2017-Nov-16 08:30N 37°57' W 008°53'0 0.0
2017-Nov-16 08:00N 37°57' W 008°53'0 1.0
2017-Nov-16 07:30N 37°57' W 008°53'2 4.9
2017-Nov-16 07:00N 37°54' W 008°53'1 2.7
2017-Nov-16 06:31N 37°54' W 008°51'0 0.3
2017-Nov-16 06:00N 37°54' W 008°52'0 0.9
2017-Nov-16 05:29N 37°53' W 008°52'0 0.0
2017-Nov-16 04:59N 37°53' W 008°52'0 0.0
2017-Nov-16 04:29N 37°53' W 008°52'0 0.0
2017-Nov-16 03:59N 37°53' W 008°52'0 0.0
2017-Nov-16 03:29N 37°53' W 008°52'0 0.0
2017-Nov-16 02:59N 37°53' W 008°52'0 0.0
2017-Nov-16 02:29N 37°53' W 008°52'0 0.0
2017-Nov-16 01:56N 37°53' W 008°52'0 0.1
2017-Nov-16 01:29N 37°53' W 008°52'0 0.0
2017-Nov-16 00:59N 37°53' W 008°52'0 0.0
2017-Nov-16 00:29N 37°53' W 008°52'0 0.0
2017-Nov-15 23:59N 37°53' W 008°52'0 0.0
2017-Nov-15 23:29N 37°53' W 008°52'0 0.0
2017-Nov-15 22:59N 37°53' W 008°52'0 0.0
2017-Nov-15 22:29N 37°53' W 008°52'0 0.0
2017-Nov-15 21:59N 37°53' W 008°52'0 0.0
2017-Nov-15 21:29N 37°53' W 008°52'0 0.0
2017-Nov-15 20:59N 37°53' W 008°52'0 0.0
2017-Nov-15 20:29N 37°53' W 008°52'0 0.0
2017-Nov-15 19:59N 37°53' W 008°52'0 0.0
2017-Nov-15 19:29N 37°53' W 008°52'1 1.9
2017-Nov-15 19:01N 37°52' W 008°51'4 7.2
2017-Nov-15 18:30N 37°49' W 008°54'4 7.8
2017-Nov-15 18:00N 37°47' W 008°57'611.3
2017-Nov-15 17:31N 37°45' W 009°04'611.5
2017-Nov-15 17:01N 37°43' W 009°11'611.7
2017-Nov-15 16:30N 37°41' W 009°18'  
2017-Nov-13 02:00N 28°09' W 015°25'0 0.0
2017-Nov-13 01:30N 28°09' W 015°25'0 0.0
2017-Nov-13 01:00N 28°09' W 015°25'0 0.0
2017-Nov-13 00:30N 28°09' W 015°25'0 0.0
2017-Nov-13 00:00N 28°09' W 015°25'0 0.0
2017-Nov-12 23:30N 28°09' W 015°25'0 0.0
2017-Nov-12 23:00N 28°09' W 015°25'0 0.0
2017-Nov-12 22:30N 28°09' W 015°25'0 0.0
2017-Nov-12 21:51N 28°09' W 015°25'0 0.0
2017-Nov-12 21:30N 28°09' W 015°25'0 0.0
2017-Nov-12 21:00N 28°09' W 015°25'0 0.0
2017-Nov-12 20:21N 28°09' W 015°25'0 0.0
2017-Nov-12 19:51N 28°09' W 015°25'0 0.0
2017-Nov-12 19:21N 28°09' W 015°25'0 0.0
2017-Nov-12 18:54N 28°09' W 015°25'0 0.0
2017-Nov-12 18:21N 28°09' W 015°25'0 0.0
2017-Nov-12 17:54N 28°09' W 015°25'0 0.0
2017-Nov-12 17:24N 28°09' W 015°25'0 0.0
2017-Nov-12 16:54N 28°09' W 015°25'0 0.0
2017-Nov-12 16:27N 28°09' W 015°25'0 0.0
2017-Nov-12 15:54N 28°09' W 015°25'0 0.0
2017-Nov-12 15:27N 28°09' W 015°25'0 0.0
2017-Nov-12 14:57N 28°09' W 015°25'0 0.0
2017-Nov-12 14:27N 28°09' W 015°25'0 0.0
2017-Nov-12 13:57N 28°09' W 015°25'0 0.0
2017-Nov-12 13:27N 28°09' W 015°25'0 0.0
2017-Nov-12 13:00N 28°09' W 015°25'0 0.0
2017-Nov-12 12:30N 28°09' W 015°25'0 0.0
2017-Nov-12 12:00N 28°09' W 015°25'0 0.0
2017-Nov-12 11:30N 28°09' W 015°25'0 0.0
2017-Nov-12 11:00N 28°09' W 015°25'0 0.0
2017-Nov-12 10:30N 28°09' W 015°25'0 0.0
2017-Nov-12 10:00N 28°09' W 015°25'0 0.0
2017-Nov-12 09:30N 28°09' W 015°25'0 0.0
2017-Nov-12 09:00N 28°09' W 015°25'0 0.0
2017-Nov-12 08:30N 28°09' W 015°25'0 0.0
2017-Nov-12 08:00N 28°09' W 015°25'0 0.0
2017-Nov-12 07:30N 28°09' W 015°25'0 0.0
2017-Nov-12 07:00N 28°09' W 015°25'0 0.0
2017-Nov-12 06:30N 28°09' W 015°25'0 0.0
2017-Nov-12 05:51N 28°09' W 015°25'0 0.0
2017-Nov-12 05:21N 28°09' W 015°25'0 0.0
2017-Nov-12 04:54N 28°09' W 015°25'0 0.0
2017-Nov-12 04:24N 28°09' W 015°25'0 0.0
2017-Nov-12 03:54N 28°09' W 015°25'0 0.0
2017-Nov-12 03:24N 28°09' W 015°25'0 0.0
2017-Nov-12 02:51N 28°09' W 015°25'0 0.0
2017-Nov-12 02:27N 28°09' W 015°25'0 0.0
2017-Nov-12 01:57N 28°09' W 015°25'0 0.0
2017-Nov-12 01:27N 28°09' W 015°25'0 0.0
2017-Nov-12 00:57N 28°09' W 015°25'0 0.0
2017-Nov-12 00:27N 28°09' W 015°25'0 0.0
2017-Nov-11 23:57N 28°09' W 015°25'0 0.0
2017-Nov-11 23:27N 28°09' W 015°25'0 0.0
2017-Nov-11 23:00N 28°09' W 015°25'0 0.0
2017-Nov-11 22:30N 28°09' W 015°25'0 0.0
2017-Nov-11 22:00N 28°09' W 015°25'0 0.0
2017-Nov-11 21:30N 28°09' W 015°25'0 0.0
2017-Nov-11 21:00N 28°09' W 015°25'0 0.0
2017-Nov-11 20:30N 28°09' W 015°25'0 0.0
2017-Nov-11 20:00N 28°09' W 015°25'0 0.0
2017-Nov-11 19:30N 28°09' W 015°25'0 0.0
2017-Nov-11 19:00N 28°09' W 015°25'0 0.0
2017-Nov-11 18:30N 28°09' W 015°25'0 0.0
2017-Nov-11 18:00N 28°09' W 015°25'0 0.0
2017-Nov-11 17:30N 28°09' W 015°25'0 0.0
2017-Nov-11 17:00N 28°09' W 015°25'0 0.0
2017-Nov-11 16:21N 28°09' W 015°25'0 0.0
2017-Nov-11 15:51N 28°09' W 015°25'0 0.0
2017-Nov-11 15:21N 28°09' W 015°25'0 0.0
2017-Nov-11 14:54N 28°09' W 015°25'0 0.0
2017-Nov-11 14:21N 28°09' W 015°25'0 0.0
2017-Nov-11 13:54N 28°09' W 015°25'0 0.0
2017-Nov-11 13:24N 28°09' W 015°25'0 0.0
2017-Nov-11 12:54N 28°09' W 015°25'0 0.0
2017-Nov-11 12:24N 28°09' W 015°25'0 0.0
2017-Nov-11 11:57N 28°09' W 015°25'0 0.0
2017-Nov-11 11:27N 28°09' W 015°25'0 0.1
2017-Nov-11 11:00N 28°09' W 015°25'1 1.7
2017-Nov-11 10:30N 28°08' W 015°25'1 1.4
2017-Nov-11 10:00N 28°08' W 015°24'0 0.3
2017-Nov-11 09:29N 28°08' W 015°24'0 0.0
2017-Nov-11 08:59N 28°08' W 015°24'0 0.0
2017-Nov-11 08:20N 28°08' W 015°24'0 0.1
2017-Nov-11 07:59N 28°08' W 015°24'0 0.0
2017-Nov-11 07:20N 28°08' W 015°24'0 0.1
2017-Nov-11 06:50N 28°08' W 015°24'0 0.1
2017-Nov-11 06:23N 28°08' W 015°24'0 0.0
2017-Nov-11 05:53N 28°08' W 015°24'0 0.0
2017-Nov-11 05:23N 28°08' W 015°24'0 0.1
2017-Nov-11 04:53N 28°08' W 015°24'0 0.0
2017-Nov-11 04:23N 28°08' W 015°24'0 0.0
2017-Nov-11 03:53N 28°08' W 015°24'0 0.0
2017-Nov-11 03:26N 28°08' W 015°24'0 0.0
2017-Nov-11 02:56N 28°08' W 015°24'0 0.0
2017-Nov-11 02:25N 28°08' W 015°24'0 0.1
2017-Nov-11 01:56N 28°08' W 015°24'0 0.1
2017-Nov-11 01:25N 28°08' W 015°24'0 0.1
2017-Nov-11 00:59N 28°08' W 015°24'0 0.0
2017-Nov-11 00:29N 28°08' W 015°24'0 0.0
2017-Nov-10 23:59N 28°08' W 015°24'0 0.1
2017-Nov-10 23:29N 28°08' W 015°24'0 0.0
2017-Nov-10 22:59N 28°08' W 015°24'0 0.0
2017-Nov-10 22:29N 28°08' W 015°24'0 0.1
2017-Nov-10 21:58N 28°08' W 015°24'0 0.1
2017-Nov-10 21:29N 28°08' W 015°24'0 0.0
2017-Nov-10 20:59N 28°08' W 015°24'0 0.1
2017-Nov-10 20:29N 28°08' W 015°24'0 0.0
2017-Nov-10 19:59N 28°08' W 015°24'0 0.0
2017-Nov-10 19:29N 28°08' W 015°24'0 0.0
2017-Nov-10 18:59N 28°08' W 015°24'0 0.0
2017-Nov-10 18:29N 28°08' W 015°24'0 0.0
2017-Nov-10 17:50N 28°08' W 015°24'0 0.0
2017-Nov-10 17:20N 28°08' W 015°24'0 0.0
2017-Nov-10 16:50N 28°08' W 015°24'0 0.0
2017-Nov-10 16:08N 28°08' W 015°24'0 0.0
2017-Nov-10 15:53N 28°08' W 015°24'0 0.0
2017-Nov-10 15:23N 28°08' W 015°24'0 0.0
2017-Nov-10 14:53N 28°08' W 015°24'0 0.0
2017-Nov-10 14:23N 28°08' W 015°24'0 0.0
2017-Nov-10 13:56N 28°08' W 015°24'0 0.0
2017-Nov-10 13:20N 28°08' W 015°24'0 0.1
2017-Nov-10 12:56N 28°08' W 015°24'0 0.0
2017-Nov-10 12:26N 28°08' W 015°24'0 0.1
2017-Nov-10 11:56N 28°08' W 015°24'0 0.0
2017-Nov-10 11:26N 28°08' W 015°24'0 0.1
2017-Nov-10 10:55N 28°08' W 015°24'0 0.0
2017-Nov-10 10:22N 28°08' W 015°24'0 0.1
2017-Nov-10 09:59N 28°08' W 015°24'0 0.0
2017-Nov-10 09:28N 28°08' W 015°24'0 0.0
2017-Nov-10 08:58N 28°08' W 015°24'0 0.0
2017-Nov-10 08:26N 28°08' W 015°24'0 0.0
2017-Nov-10 07:59N 28°08' W 015°24'0 0.0
2017-Nov-10 07:29N 28°08' W 015°24'0 0.0
2017-Nov-10 06:58N 28°08' W 015°24'0 0.1
2017-Nov-10 06:17N 28°08' W 015°24'0 0.1
2017-Nov-10 05:59N 28°08' W 015°24'0 0.0
2017-Nov-10 05:29N 28°08' W 015°24'1 1.1
2017-Nov-10 05:00N 28°08' W 015°23'2 3.8
2017-Nov-10 04:30N 28°07' W 015°21'3 6.7
2017-Nov-10 04:00N 28°07' W 015°18'3 6.8
2017-Nov-10 03:30N 28°07' W 015°14'4 7.6
2017-Nov-10 03:00N 28°08' W 015°09'5 9.3
2017-Nov-10 02:30N 28°08' W 015°04'510.6
2017-Nov-10 02:00N 28°10' W 014°59'612.5
2017-Nov-10 01:30N 28°16' W 014°57'612.2
2017-Nov-10 01:00N 28°22' W 014°56'612.6
2017-Nov-10 00:30N 28°29' W 014°53'612.6
2017-Nov-10 00:00N 28°34' W 014°51'612.6
2017-Nov-09 23:30N 28°40' W 014°49'1012.9
2017-Nov-09 22:45N 28°50' W 014°46'512.8
2017-Nov-09 22:20N 28°55' W 014°45'3212.3
2017-Nov-09 19:43N 29°26' W 014°35'312.1
2017-Nov-09 19:29N 29°29' W 014°34'  
Track history (hours):
 
Tides and Currents Weather Stations Pressure Air Temp Water Temp Dewpoint Dewpoint Depression Visibility Wind Speed Wind Dir Waves Ship Positions

Marie Kirk

Last reported at 2017-Nov-19 01:01 UTC. Time now 2017-Nov-22 20:35 UTC.
Position N 36°05' W 005°21'.

Length 183 m; draft 11 m.

Type: Ship. MMSI: 235083559.

Date/timePositionNaut miles runAvg speedWind from/ knotsBaromVisibWave heightAir tempDewpointWater temp
2017-Nov-19 01:01N 36°05' W 005°21'0 8.2
2017-Nov-19 01:00N 36°05' W 005°21'4 8.3
2017-Nov-19 00:30N 36°08' W 005°17'0 0.4
2017-Nov-18 23:47N 36°08' W 005°17'0 0.7
2017-Nov-18 23:29N 36°08' W 005°17'0 0.5
2017-Nov-18 23:01N 36°07' W 005°17'1 1.6
2017-Nov-18 22:31N 36°08' W 005°17'1 2.1
2017-Nov-18 22:00N 36°07' W 005°17'2 4.4
2017-Nov-18 21:30N 36°05' W 005°18'4 8.1
2017-Nov-18 21:01N 36°02' W 005°21'611.3
2017-Nov-18 20:31N 35°58' W 005°26'5 9.0
2017-Nov-18 20:01N 35°57' W 005°31'18211.5
2017-Nov-18 04:11N 36°28' W 009°14'1211.9
2017-Nov-18 03:13N 36°34' W 009°26'312.6
2017-Nov-18 02:58N 36°36' W 009°28'613.2
2017-Nov-18 02:31N 36°41' W 009°34'712.9
2017-Nov-18 01:57N 36°46' W 009°39'612.8
2017-Nov-18 01:31N 36°52' W 009°41'712.6
2017-Nov-18 00:57N 36°59' W 009°43'511.7
2017-Nov-18 00:31N 37°03' W 009°39'1012.5
2017-Nov-17 23:40N 37°12' W 009°32'512.9
2017-Nov-17 23:19N 37°15' W 009°28'413.0
2017-Nov-17 22:59N 37°18' W 009°25'613.4
2017-Nov-17 22:30N 37°23' W 009°19'612.8
2017-Nov-17 22:01N 37°28' W 009°14'612.4
2017-Nov-17 21:31N 37°33' W 009°10'612.8
2017-Nov-17 21:00N 37°38' W 009°04'613.1
2017-Nov-17 20:31N 37°43' W 008°59'712.9
2017-Nov-17 20:00N 37°48' W 008°54'713.1
2017-Nov-17 19:31N 37°55' W 008°53'2 4.4
2017-Nov-17 19:00N 37°57' W 008°53'0 0.0
2017-Nov-17 18:27N 37°57' W 008°53'0 0.0
2017-Nov-17 18:00N 37°57' W 008°53'0 0.0
2017-Nov-17 17:30N 37°57' W 008°53'0 0.0
2017-Nov-17 17:00N 37°57' W 008°53'0 0.0
2017-Nov-17 16:30N 37°57' W 008°53'0 0.0
2017-Nov-17 16:00N 37°57' W 008°53'0 0.0
2017-Nov-17 15:30N 37°57' W 008°53'0 0.0
2017-Nov-17 15:00N 37°57' W 008°53'0 0.0
2017-Nov-17 14:30N 37°57' W 008°53'0 0.0
2017-Nov-17 14:00N 37°57' W 008°53'0 0.0
2017-Nov-17 13:30N 37°57' W 008°53'0 0.0
2017-Nov-17 13:00N 37°57' W 008°53'0 0.0
2017-Nov-17 12:30N 37°57' W 008°53'0 0.0
2017-Nov-17 12:00N 37°57' W 008°53'0 0.0
2017-Nov-17 11:30N 37°57' W 008°53'0 0.0
2017-Nov-17 11:00N 37°57' W 008°53'0 0.0
2017-Nov-17 10:27N 37°57' W 008°53'0 0.0
2017-Nov-17 10:00N 37°57' W 008°53'0 0.0
2017-Nov-17 09:30N 37°57' W 008°53'0 0.0
2017-Nov-17 09:00N 37°57' W 008°53'0 0.0
2017-Nov-17 08:30N 37°57' W 008°53'0 0.0
2017-Nov-17 08:00N 37°57' W 008°53'0 0.0
2017-Nov-17 07:30N 37°57' W 008°53'0 0.0
2017-Nov-17 07:00N 37°57' W 008°53'0 0.0
2017-Nov-17 06:30N 37°57' W 008°53'0 0.0
2017-Nov-17 06:00N 37°57' W 008°53'0 0.0
2017-Nov-17 05:30N 37°57' W 008°53'0 0.0
2017-Nov-17 05:00N 37°57' W 008°53'0 0.0
2017-Nov-17 04:30N 37°57' W 008°53'0 0.0
2017-Nov-17 04:00N 37°57' W 008°53'0 0.0
2017-Nov-17 03:30N 37°57' W 008°53'0 0.0
2017-Nov-17 03:00N 37°57' W 008°53'0 0.0
2017-Nov-17 02:30N 37°57' W 008°53'0 0.0
2017-Nov-17 02:00N 37°57' W 008°53'0 0.0
2017-Nov-17 01:30N 37°57' W 008°53'0 0.0
2017-Nov-17 01:00N 37°57' W 008°53'0 0.0
2017-Nov-17 00:30N 37°57' W 008°53'0 0.0
2017-Nov-17 00:00N 37°57' W 008°53'0 0.0
2017-Nov-16 23:30N 37°57' W 008°53'0 0.0
2017-Nov-16 23:00N 37°57' W 008°53'0 0.0
2017-Nov-16 22:30N 37°57' W 008°53'0 0.0
2017-Nov-16 22:00N 37°57' W 008°53'0 0.0
2017-Nov-16 21:30N 37°57' W 008°53'0 0.0
2017-Nov-16 21:00N 37°57' W 008°53'0 0.0
2017-Nov-16 20:30N 37°57' W 008°53'0 0.0
2017-Nov-16 20:00N 37°57' W 008°53'0 0.0
2017-Nov-16 19:30N 37°57' W 008°53'0 0.0
2017-Nov-16 19:00N 37°57' W 008°53'0 0.0
2017-Nov-16 18:30N 37°57' W 008°53'0 0.0
2017-Nov-16 18:00N 37°57' W 008°53'0 0.0
2017-Nov-16 17:30N 37°57' W 008°53'0 0.0
2017-Nov-16 17:00N 37°57' W 008°53'0 0.0
2017-Nov-16 16:30N 37°57' W 008°53'0 0.0
2017-Nov-16 16:00N 37°57' W 008°53'0 0.0
2017-Nov-16 15:30N 37°57' W 008°53'0 0.0
2017-Nov-16 15:00N 37°57' W 008°53'0 0.0
2017-Nov-16 14:30N 37°57' W 008°53'0 0.0
2017-Nov-16 14:00N 37°57' W 008°53'0 0.0
2017-Nov-16 13:30N 37°57' W 008°53'0 0.0
2017-Nov-16 13:00N 37°57' W 008°53'0 0.0
2017-Nov-16 12:30N 37°57' W 008°53'0 0.0
2017-Nov-16 12:00N 37°57' W 008°53'0 0.0
2017-Nov-16 11:30N 37°57' W 008°53'0 0.0
2017-Nov-16 11:00N 37°57' W 008°53'0 0.0
2017-Nov-16 10:30N 37°57' W 008°53'0 0.0
2017-Nov-16 10:00N 37°57' W 008°53'0 0.0
2017-Nov-16 09:30N 37°57' W 008°53'0 0.0
2017-Nov-16 09:00N 37°57' W 008°53'0 0.0
2017-Nov-16 08:30N 37°57' W 008°53'0 0.0
2017-Nov-16 08:00N 37°57' W 008°53'0 1.0
2017-Nov-16 07:30N 37°57' W 008°53'2 4.9
2017-Nov-16 07:00N 37°54' W 008°53'1 2.7
2017-Nov-16 06:31N 37°54' W 008°51'0 0.3
2017-Nov-16 06:00N 37°54' W 008°52'0 0.9
2017-Nov-16 05:29N 37°53' W 008°52'0 0.0
2017-Nov-16 04:59N 37°53' W 008°52'0 0.0
2017-Nov-16 04:29N 37°53' W 008°52'0 0.0
2017-Nov-16 03:59N 37°53' W 008°52'0 0.0
2017-Nov-16 03:29N 37°53' W 008°52'0 0.0
2017-Nov-16 02:59N 37°53' W 008°52'0 0.0
2017-Nov-16 02:29N 37°53' W 008°52'0 0.0
2017-Nov-16 01:56N 37°53' W 008°52'0 0.1
2017-Nov-16 01:29N 37°53' W 008°52'0 0.0
2017-Nov-16 00:59N 37°53' W 008°52'0 0.0
2017-Nov-16 00:29N 37°53' W 008°52'0 0.0
2017-Nov-15 23:59N 37°53' W 008°52'0 0.0
2017-Nov-15 23:29N 37°53' W 008°52'0 0.0
2017-Nov-15 22:59N 37°53' W 008°52'0 0.0
2017-Nov-15 22:29N 37°53' W 008°52'0 0.0
2017-Nov-15 21:59N 37°53' W 008°52'0 0.0
2017-Nov-15 21:29N 37°53' W 008°52'0 0.0
2017-Nov-15 20:59N 37°53' W 008°52'0 0.0
2017-Nov-15 20:29N 37°53' W 008°52'0 0.0
2017-Nov-15 19:59N 37°53' W 008°52'0 0.0
2017-Nov-15 19:29N 37°53' W 008°52'1 1.9
2017-Nov-15 19:01N 37°52' W 008°51'4 7.2
2017-Nov-15 18:30N 37°49' W 008°54'4 7.8
2017-Nov-15 18:00N 37°47' W 008°57'611.3
2017-Nov-15 17:31N 37°45' W 009°04'611.5
2017-Nov-15 17:01N 37°43' W 009°11'611.7
2017-Nov-15 16:30N 37°41' W 009°18'  
2017-Nov-13 02:00N 28°09' W 015°25'0 0.0
2017-Nov-13 01:30N 28°09' W 015°25'0 0.0
2017-Nov-13 01:00N 28°09' W 015°25'0 0.0
2017-Nov-13 00:30N 28°09' W 015°25'0 0.0
2017-Nov-13 00:00N 28°09' W 015°25'0 0.0
2017-Nov-12 23:30N 28°09' W 015°25'0 0.0
2017-Nov-12 23:00N 28°09' W 015°25'0 0.0
2017-Nov-12 22:30N 28°09' W 015°25'0 0.0
2017-Nov-12 21:51N 28°09' W 015°25'0 0.0
2017-Nov-12 21:30N 28°09' W 015°25'0 0.0
2017-Nov-12 21:00N 28°09' W 015°25'0 0.0
2017-Nov-12 20:21N 28°09' W 015°25'0 0.0
2017-Nov-12 19:51N 28°09' W 015°25'0 0.0
2017-Nov-12 19:21N 28°09' W 015°25'0 0.0
2017-Nov-12 18:54N 28°09' W 015°25'0 0.0
2017-Nov-12 18:21N 28°09' W 015°25'0 0.0
2017-Nov-12 17:54N 28°09' W 015°25'0 0.0
2017-Nov-12 17:24N 28°09' W 015°25'0 0.0
2017-Nov-12 16:54N 28°09' W 015°25'0 0.0
2017-Nov-12 16:27N 28°09' W 015°25'0 0.0
2017-Nov-12 15:54N 28°09' W 015°25'0 0.0
2017-Nov-12 15:27N 28°09' W 015°25'0 0.0
2017-Nov-12 14:57N 28°09' W 015°25'0 0.0
2017-Nov-12 14:27N 28°09' W 015°25'0 0.0
2017-Nov-12 13:57N 28°09' W 015°25'0 0.0
2017-Nov-12 13:27N 28°09' W 015°25'0 0.0
2017-Nov-12 13:00N 28°09' W 015°25'0 0.0
2017-Nov-12 12:30N 28°09' W 015°25'0 0.0
2017-Nov-12 12:00N 28°09' W 015°25'0 0.0
2017-Nov-12 11:30N 28°09' W 015°25'0 0.0
2017-Nov-12 11:00N 28°09' W 015°25'0 0.0
2017-Nov-12 10:30N 28°09' W 015°25'0 0.0
2017-Nov-12 10:00N 28°09' W 015°25'0 0.0
2017-Nov-12 09:30N 28°09' W 015°25'0 0.0
2017-Nov-12 09:00N 28°09' W 015°25'0 0.0
2017-Nov-12 08:30N 28°09' W 015°25'0 0.0
2017-Nov-12 08:00N 28°09' W 015°25'0 0.0
2017-Nov-12 07:30N 28°09' W 015°25'0 0.0
2017-Nov-12 07:00N 28°09' W 015°25'0 0.0
2017-Nov-12 06:30N 28°09' W 015°25'0 0.0
2017-Nov-12 05:51N 28°09' W 015°25'0 0.0
2017-Nov-12 05:21N 28°09' W 015°25'0 0.0
2017-Nov-12 04:54N 28°09' W 015°25'0 0.0
2017-Nov-12 04:24N 28°09' W 015°25'0 0.0
2017-Nov-12 03:54N 28°09' W 015°25'0 0.0
2017-Nov-12 03:24N 28°09' W 015°25'0 0.0
2017-Nov-12 02:51N 28°09' W 015°25'0 0.0
2017-Nov-12 02:27N 28°09' W 015°25'0 0.0
2017-Nov-12 01:57N 28°09' W 015°25'0 0.0
2017-Nov-12 01:27N 28°09' W 015°25'0 0.0
2017-Nov-12 00:57N 28°09' W 015°25'0 0.0
2017-Nov-12 00:27N 28°09' W 015°25'0 0.0
2017-Nov-11 23:57N 28°09' W 015°25'0 0.0
2017-Nov-11 23:27N 28°09' W 015°25'0 0.0
2017-Nov-11 23:00N 28°09' W 015°25'0 0.0
2017-Nov-11 22:30N 28°09' W 015°25'0 0.0
2017-Nov-11 22:00N 28°09' W 015°25'0 0.0
2017-Nov-11 21:30N 28°09' W 015°25'0 0.0
2017-Nov-11 21:00N 28°09' W 015°25'0 0.0
2017-Nov-11 20:30N 28°09' W 015°25'0 0.0
2017-Nov-11 20:00N 28°09' W 015°25'0 0.0
2017-Nov-11 19:30N 28°09' W 015°25'0 0.0
2017-Nov-11 19:00N 28°09' W 015°25'0 0.0
2017-Nov-11 18:30N 28°09' W 015°25'0 0.0
2017-Nov-11 18:00N 28°09' W 015°25'0 0.0
2017-Nov-11 17:30N 28°09' W 015°25'0 0.0
2017-Nov-11 17:00N 28°09' W 015°25'0 0.0
2017-Nov-11 16:21N 28°09' W 015°25'0 0.0
2017-Nov-11 15:51N 28°09' W 015°25'0 0.0
2017-Nov-11 15:21N 28°09' W 015°25'0 0.0
2017-Nov-11 14:54N 28°09' W 015°25'0 0.0
2017-Nov-11 14:21N 28°09' W 015°25'0 0.0
2017-Nov-11 13:54N 28°09' W 015°25'0 0.0
2017-Nov-11 13:24N 28°09' W 015°25'0 0.0
2017-Nov-11 12:54N 28°09' W 015°25'0 0.0
2017-Nov-11 12:24N 28°09' W 015°25'0 0.0
2017-Nov-11 11:57N 28°09' W 015°25'0 0.0
2017-Nov-11 11:27N 28°09' W 015°25'0 0.1
2017-Nov-11 11:00N 28°09' W 015°25'1 1.7
2017-Nov-11 10:30N 28°08' W 015°25'1 1.4
2017-Nov-11 10:00N 28°08' W 015°24'0 0.3
2017-Nov-11 09:29N 28°08' W 015°24'0 0.0
2017-Nov-11 08:59N 28°08' W 015°24'0 0.0
2017-Nov-11 08:20N 28°08' W 015°24'0 0.1
2017-Nov-11 07:59N 28°08' W 015°24'0 0.0
2017-Nov-11 07:20N 28°08' W 015°24'0 0.1
2017-Nov-11 06:50N 28°08' W 015°24'0 0.1
2017-Nov-11 06:23N 28°08' W 015°24'0 0.0
2017-Nov-11 05:53N 28°08' W 015°24'0 0.0
2017-Nov-11 05:23N 28°08' W 015°24'0 0.1
2017-Nov-11 04:53N 28°08' W 015°24'0 0.0
2017-Nov-11 04:23N 28°08' W 015°24'0 0.0
2017-Nov-11 03:53N 28°08' W 015°24'0 0.0
2017-Nov-11 03:26N 28°08' W 015°24'0 0.0
2017-Nov-11 02:56N 28°08' W 015°24'0 0.0
2017-Nov-11 02:25N 28°08' W 015°24'0 0.1
2017-Nov-11 01:56N 28°08' W 015°24'0 0.1
2017-Nov-11 01:25N 28°08' W 015°24'0 0.1
2017-Nov-11 00:59N 28°08' W 015°24'0 0.0
2017-Nov-11 00:29N 28°08' W 015°24'0 0.0
2017-Nov-10 23:59N 28°08' W 015°24'0 0.1
2017-Nov-10 23:29N 28°08' W 015°24'0 0.0
2017-Nov-10 22:59N 28°08' W 015°24'0 0.0
2017-Nov-10 22:29N 28°08' W 015°24'0 0.1
2017-Nov-10 21:58N 28°08' W 015°24'0 0.1
2017-Nov-10 21:29N 28°08' W 015°24'0 0.0
2017-Nov-10 20:59N 28°08' W 015°24'0 0.1
2017-Nov-10 20:29N 28°08' W 015°24'0 0.0
2017-Nov-10 19:59N 28°08' W 015°24'0 0.0
2017-Nov-10 19:29N 28°08' W 015°24'0 0.0
2017-Nov-10 18:59N 28°08' W 015°24'0 0.0
2017-Nov-10 18:29N 28°08' W 015°24'0 0.0
2017-Nov-10 17:50N 28°08' W 015°24'0 0.0
2017-Nov-10 17:20N 28°08' W 015°24'0 0.0
2017-Nov-10 16:50N 28°08' W 015°24'0 0.0
2017-Nov-10 16:08N 28°08' W 015°24'0 0.0
2017-Nov-10 15:53N 28°08' W 015°24'0 0.0
2017-Nov-10 15:23N 28°08' W 015°24'0 0.0
2017-Nov-10 14:53N 28°08' W 015°24'0 0.0
2017-Nov-10 14:23N 28°08' W 015°24'0 0.0
2017-Nov-10 13:56N 28°08' W 015°24'0 0.0
2017-Nov-10 13:20N 28°08' W 015°24'0 0.1
2017-Nov-10 12:56N 28°08' W 015°24'0 0.0
2017-Nov-10 12:26N 28°08' W 015°24'0 0.1
2017-Nov-10 11:56N 28°08' W 015°24'0 0.0
2017-Nov-10 11:26N 28°08' W 015°24'0 0.1
2017-Nov-10 10:55N 28°08' W 015°24'0 0.0
2017-Nov-10 10:22N 28°08' W 015°24'0 0.1
2017-Nov-10 09:59N 28°08' W 015°24'0 0.0
2017-Nov-10 09:28N 28°08' W 015°24'0 0.0
2017-Nov-10 08:58N 28°08' W 015°24'0 0.0
2017-Nov-10 08:26N 28°08' W 015°24'0 0.0
2017-Nov-10 07:59N 28°08' W 015°24'0 0.0
2017-Nov-10 07:29N 28°08' W 015°24'0 0.0
2017-Nov-10 06:58N 28°08' W 015°24'0 0.1
2017-Nov-10 06:17N 28°08' W 015°24'0 0.1
2017-Nov-10 05:59N 28°08' W 015°24'0 0.0
2017-Nov-10 05:29N 28°08' W 015°24'1 1.1
2017-Nov-10 05:00N 28°08' W 015°23'2 3.8
2017-Nov-10 04:30N 28°07' W 015°21'3 6.7
2017-Nov-10 04:00N 28°07' W 015°18'3 6.8
2017-Nov-10 03:30N 28°07' W 015°14'4 7.6
2017-Nov-10 03:00N 28°08' W 015°09'5 9.3
2017-Nov-10 02:30N 28°08' W 015°04'510.6
2017-Nov-10 02:00N 28°10' W 014°59'612.5
2017-Nov-10 01:30N 28°16' W 014°57'612.2
2017-Nov-10 01:00N 28°22' W 014°56'612.6
2017-Nov-10 00:30N 28°29' W 014°53'612.6
2017-Nov-10 00:00N 28°34' W 014°51'612.6
2017-Nov-09 23:30N 28°40' W 014°49'1012.9
2017-Nov-09 22:45N 28°50' W 014°46'512.8
2017-Nov-09 22:20N 28°55' W 014°45'3212.3
2017-Nov-09 19:43N 29°26' W 014°35'312.1
2017-Nov-09 19:29N 29°29' W 014°34'  

Dump ship's entire track history